Time;durP1;ratioP1;P1;durP2;ratioP2;P2;SDS_P1;SDS_P2;PMS_P1;PMS_P2;Temp;Humidity;BMP_temperature;BMP_pressure;BME280_temperature;BME280_humidity;BME280_pressure;Samples;Min_cycle;Max_cycle;Signal;HPM_P1;HPM_P2
2021/12/08 00:01:19;;;;;;;5.85;2.13;;;5.10;99.90;;;;;;5071639;28;20177;-45
2021/12/08 00:03:45;;;;;;;8.38;2.15;;;5.10;99.90;;;;;;5071460;28;20213;-45
2021/12/08 00:06:11;;;;;;;3.38;2.10;;;5.00;99.90;;;;;;5071447;28;20233;-45
2021/12/08 00:08:37;;;;;;;7.25;2.58;;;5.00;99.90;;;;;;5071673;28;20273;-45
2021/12/08 00:13:49;;;;;;;6.55;2.33;;;4.90;99.90;;;;;;5071489;28;20169;-45
2021/12/08 00:16:14;;;;;;;6.57;2.63;;;4.90;99.90;;;;;;5071475;28;20249;-46
2021/12/08 00:18:47;;;;;;;6.47;2.80;;;4.90;99.90;;;;;;5071432;28;20249;-45
2021/12/08 00:21:15;;;;;;;6.10;1.90;;;4.90;99.90;;;;;;5071512;28;20228;-45
2021/12/08 00:23:40;;;;;;;5.10;2.15;;;4.90;99.90;;;;;;5071626;28;20167;-46
2021/12/08 00:26:08;;;;;;;5.45;2.20;;;4.90;99.90;;;;;;5071456;28;20230;-46
2021/12/08 00:28:34;;;;;;;5.05;1.83;;;4.90;99.90;;;;;;5070025;28;20680;-45
2021/12/08 00:31:03;;;;;;;6.18;2.60;;;4.90;99.90;;;;;;5071355;28;20178;-45
2021/12/08 00:33:30;;;;;;;5.20;2.03;;;4.90;99.90;;;;;;5071392;28;20216;-45
2021/12/08 00:35:58;;;;;;;4.93;1.83;;;4.90;99.90;;;;;;5075110;28;20482;-45
2021/12/08 00:38:24;;;;;;;4.10;1.60;;;5.00;99.90;;;;;;5075317;28;20162;-45
2021/12/08 00:40:50;;;;;;;6.40;1.42;;;5.00;99.90;;;;;;5074961;28;20227;-45
2021/12/08 00:43:18;;;;;;;1.85;1.60;;;5.10;99.90;;;;;;5074887;28;20177;-45
2021/12/08 00:45:44;;;;;;;4.20;1.27;;;5.10;99.90;;;;;;5074650;28;20658;-45
2021/12/08 00:48:09;;;;;;;5.05;1.65;;;5.20;99.90;;;;;;5073619;28;20181;-45
2021/12/08 00:50:38;;;;;;;1.80;1.45;;;5.20;99.90;;;;;;5074761;28;20674;-45
2021/12/08 00:53:04;;;;;;;3.65;1.70;;;5.20;99.90;;;;;;5074988;28;20173;-45
2021/12/08 00:55:30;;;;;;;2.55;1.10;;;5.20;99.90;;;;;;5074707;28;20162;-45
2021/12/08 00:57:56;;;;;;;1.98;1.30;;;5.30;99.90;;;;;;5074998;28;20360;-46
2021/12/08 01:00:28;;;;;;;1.88;1.15;;;5.20;99.90;;;;;;5074801;28;20219;-45
2021/12/08 01:02:55;;;;;;;2.75;1.25;;;5.30;99.90;;;;;;5074811;28;20166;-45
2021/12/08 01:05:28;;;;;;;1.05;1.00;;;5.30;99.90;;;;;;5074247;28;20173;-45
2021/12/08 01:07:53;;;;;;;2.63;1.45;;;5.30;99.90;;;;;;5074824;28;20257;-46
2021/12/08 01:10:22;;;;;;;3.58;1.58;;;5.30;99.90;;;;;;5074219;28;20308;-45
2021/12/08 01:12:49;;;;;;;2.22;1.33;;;5.40;99.90;;;;;;5074358;28;20178;-45
2021/12/08 01:15:15;;;;;;;1.63;0.98;;;5.40;99.90;;;;;;5074382;28;20618;-45
2021/12/08 01:17:41;;;;;;;0.98;0.88;;;5.40;99.90;;;;;;5074329;28;20261;-45
2021/12/08 01:20:13;;;;;;;2.15;1.13;;;5.50;99.90;;;;;;5074591;28;20166;-45
2021/12/08 01:22:38;;;;;;;2.08;1.05;;;5.50;99.90;;;;;;5074173;28;20262;-45
2021/12/08 01:25:05;;;;;;;1.77;1.20;;;5.40;99.90;;;;;;5074227;28;20254;-45
2021/12/08 01:27:32;;;;;;;2.47;1.55;;;5.50;99.90;;;;;;5073987;28;20206;-45
2021/12/08 01:29:58;;;;;;;1.20;1.10;;;5.50;99.90;;;;;;5073969;28;20205;-45
2021/12/08 01:32:24;;;;;;;1.15;1.05;;;5.50;99.90;;;;;;5074308;28;20209;-45
2021/12/08 01:34:52;;;;;;;3.55;1.48;;;5.60;99.90;;;;;;5073981;28;20581;-45
2021/12/08 01:37:18;;;;;;;1.45;1.23;;;5.50;99.90;;;;;;5073767;28;20170;-45
2021/12/08 01:39:44;;;;;;;1.58;1.15;;;5.60;99.90;;;;;;5074157;28;20169;-45
2021/12/08 01:42:16;;;;;;;2.28;0.90;;;5.50;99.90;;;;;;5073779;28;20170;-45
2021/12/08 01:47:28;;;;;;;2.28;0.90;;;5.60;99.90;;;;;;5073389;28;20246;-46
2021/12/08 01:49:53;;;;;;;1.83;0.93;;;5.60;99.90;;;;;;5074045;28;20173;-45
2021/12/08 01:52:19;;;;;;;2.10;1.10;;;5.60;99.90;;;;;;5073583;28;20170;-45
2021/12/08 01:54:44;;;;;;;1.20;1.10;;;5.60;99.90;;;;;;5073667;28;20532;-46
2021/12/08 01:57:10;;;;;;;1.20;1.10;;;5.60;99.90;;;;;;5073466;28;20174;-46
2021/12/08 01:59:36;;;;;;;2.10;1.20;;;5.60;99.90;;;;;;5073425;28;20166;-46
2021/12/08 02:02:02;;;;;;;4.05;1.00;;;5.50;99.90;;;;;;5073632;28;20539;-45
2021/12/08 02:04:27;;;;;;;2.20;1.27;;;5.60;99.90;;;;;;5073415;28;20174;-45
2021/12/08 02:06:53;;;;;;;1.83;0.93;;;5.60;99.90;;;;;;5073574;28;20213;-45
2021/12/08 02:09:19;;;;;;;1.67;1.23;;;5.60;99.90;;;;;;5072877;28;20241;-46
2021/12/08 02:11:46;;;;;;;2.55;0.93;;;5.60;99.90;;;;;;5073016;28;20181;-45
2021/12/08 02:14:13;;;;;;;1.58;1.30;;;5.60;99.90;;;;;;5073398;28;20507;-45
2021/12/08 02:16:40;;;;;;;2.17;1.17;;;5.60;99.90;;;;;;5073177;28;20165;-45
2021/12/08 02:19:06;;;;;;;1.67;1.15;;;5.60;99.90;;;;;;5073096;28;20193;-46
2021/12/08 02:21:38;;;;;;;1.63;1.10;;;5.50;99.90;;;;;;5072997;28;20174;-44
2021/12/08 02:24:09;;;;;;;1.60;1.10;;;5.50;99.90;;;;;;5073004;28;20155;-44
2021/12/08 02:26:36;;;;;;;1.23;0.80;;;5.60;99.90;;;;;;5071582;28;20209;-45
2021/12/08 02:29:08;;;;;;;0.95;0.88;;;5.50;99.90;;;;;;5072927;28;20264;-44
2021/12/08 02:47:58;;;;;;;1.13;1.00;;;5.60;99.90;;;;;;5072885;28;20264;-44
2021/12/08 02:50:28;;;;;;;1.17;0.85;;;5.60;99.90;;;;;;5072766;28;20273;-45
2021/12/08 02:52:56;;;;;;;1.40;1.20;;;5.60;99.90;;;;;;5073057;28;20174;-44
2021/12/08 02:55:22;;;;;;;1.90;0.90;;;5.60;99.90;;;;;;5072518;28;20196;-45
2021/12/08 02:57:47;;;;;;;1.15;1.00;;;5.60;99.90;;;;;;5072541;28;20267;-45
2021/12/08 03:00:18;;;;;;;1.17;0.88;;;5.60;99.90;;;;;;5072250;28;20170;-46
2021/12/08 03:02:43;;;;;;;1.23;1.00;;;5.60;99.90;;;;;;5072346;28;20177;-45
2021/12/08 03:05:09;;;;;;;1.23;1.00;;;5.60;99.90;;;;;;5072028;28;20269;-45
2021/12/08 03:07:37;;;;;;;1.00;0.90;;;5.60;99.90;;;;;;5070864;28;20723;-45
2021/12/08 03:10:14;;;;;;;1.50;1.17;;;5.70;99.90;;;;;;5071914;28;20714;-45
2021/12/08 03:12:40;;;;;;;1.67;1.00;;;5.70;99.90;;;;;;5072133;28;20170;-44
2021/12/08 03:15:07;;;;;;;2.70;1.10;;;5.70;99.90;;;;;;5072261;28;20162;-45
2021/12/08 03:17:35;;;;;;;1.55;1.10;;;5.70;99.90;;;;;;5070747;28;20565;-45
2021/12/08 03:20:14;;;;;;;1.45;1.10;;;5.70;99.90;;;;;;5072139;28;20178;-46
2021/12/08 03:22:44;;;;;;;3.97;1.35;;;5.70;99.90;;;;;;5072002;28;20162;-45
2021/12/08 03:25:13;;;;;;;1.35;1.00;;;5.70;99.90;;;;;;5072276;28;20177;-45
2021/12/08 03:27:47;;;;;;;1.20;1.00;;;5.80;99.90;;;;;;5071875;28;20306;-45
2021/12/08 03:30:19;;;;;;;1.23;1.02;;;5.80;99.90;;;;;;5071885;28;20194;-45
2021/12/08 03:32:45;;;;;;;2.95;1.35;;;5.80;99.90;;;;;;5071970;28;20173;-45
2021/12/08 03:35:15;;;;;;;3.03;1.48;;;5.80;99.90;;;;;;5072060;28;20523;-45
2021/12/08 03:37:43;;;;;;;1.73;1.17;;;5.80;99.90;;;;;;5071883;28;20633;-45
2021/12/08 03:40:13;;;;;;;1.88;1.17;;;5.80;99.90;;;;;;5071925;28;20536;-45
2021/12/08 03:42:39;;;;;;;6.20;2.00;;;5.90;99.90;;;;;;5070875;28;20194;-44
2021/12/08 03:45:10;;;;;;;1.38;1.02;;;5.90;99.90;;;;;;5072121;28;20170;-44
2021/12/08 03:47:39;;;;;;;3.40;1.50;;;5.90;99.90;;;;;;5071681;28;20198;-45
2021/12/08 03:50:07;;;;;;;2.33;1.30;;;5.90;99.90;;;;;;5071789;28;20567;-44
2021/12/08 03:52:32;;;;;;;4.13;1.30;;;5.90;99.90;;;;;;5071758;28;20177;-45
2021/12/08 03:54:58;;;;;;;3.97;1.30;;;6.00;99.90;;;;;;5071710;28;20162;-44
2021/12/08 03:57:24;;;;;;;1.75;1.30;;;5.90;99.90;;;;;;5072153;28;20220;-44
2021/12/08 03:59:49;;;;;;;1.98;1.55;;;5.90;99.90;;;;;;5071855;28;20180;-44
2021/12/08 04:02:15;;;;;;;2.03;1.50;;;5.90;99.90;;;;;;5071748;28;20203;-45
2021/12/08 04:04:46;;;;;;;2.00;1.33;;;5.90;99.90;;;;;;5071178;28;20532;-44
2021/12/08 04:07:13;;;;;;;2.83;1.13;;;5.90;99.90;;;;;;5071661;28;20209;-45
2021/12/08 04:09:41;;;;;;;1.63;1.30;;;5.90;99.90;;;;;;5073155;28;20221;-44
2021/12/08 04:12:12;;;;;;;1.70;1.33;;;5.90;99.90;;;;;;5075802;28;20174;-45
2021/12/08 04:14:42;;;;;;;3.83;1.33;;;6.00;99.90;;;;;;5075162;28;20169;-45
2021/12/08 04:17:17;;;;;;;3.30;1.40;;;6.00;99.90;;;;;;5075614;28;20173;-44
2021/12/08 04:19:45;;;;;;;3.83;1.38;;;6.00;99.90;;;;;;5075401;28;20164;-44
2021/12/08 04:22:24;;;;;;;4.45;1.85;;;6.00;99.90;;;;;;5075529;28;20205;-45
2021/12/08 04:24:51;;;;;;;7.82;2.47;;;6.00;99.90;;;;;;5075262;28;20178;-44
2021/12/08 04:27:21;;;;;;;4.45;2.05;;;6.00;99.90;;;;;;5075155;28;20220;-45
2021/12/08 04:29:48;;;;;;;6.53;2.30;;;6.10;99.90;;;;;;5075223;28;20162;-44
2021/12/08 04:32:15;;;;;;;4.68;2.28;;;6.20;99.90;;;;;;5075126;28;20529;-44
2021/12/08 04:34:45;;;;;;;7.05;2.10;;;6.20;99.90;;;;;;5075082;28;20166;-45
2021/12/08 04:37:21;;;;;;;8.00;1.60;;;6.20;99.90;;;;;;5074943;28;20630;-44
2021/12/08 04:42:26;;;;;;;6.43;1.60;;;6.20;99.90;;;;;;5075222;28;20166;-44
2021/12/08 04:44:58;;;;;;;4.88;1.90;;;6.10;99.90;;;;;;5074690;28;20682;-45
2021/12/08 04:47:35;;;;;;;6.75;2.65;;;6.10;99.90;;;;;;5075573;28;20217;-45
2021/12/08 04:52:49;;;;;;;9.18;2.20;;;6.10;99.90;;;;;;5075026;28;20284;-45
2021/12/08 05:07:03;;;;;;;4.93;2.17;;;5.90;99.90;;;;;;5032399;28;20290;-44
2021/12/08 05:09:36;;;;;;;2.42;1.67;;;5.80;99.90;;;;;;5031615;28;20229;-44
2021/12/08 05:12:11;;;;;;;5.45;1.85;;;5.80;99.90;;;;;;5059223;28;20178;-44
2021/12/08 05:14:52;;;;;;;7.50;1.55;;;5.90;99.90;;;;;;5074300;28;20177;-44
2021/12/08 05:17:31;;;;;;;5.63;1.58;;;5.90;99.90;;;;;;5074208;28;20256;-45
2021/12/08 05:19:59;;;;;;;2.85;1.35;;;5.90;99.90;;;;;;5074232;28;20661;-45
2021/12/08 05:22:32;;;;;;;6.13;3.22;;;6.00;99.90;;;;;;5073937;28;20170;-46
2021/12/08 05:25:00;;;;;;;11.77;4.95;;;6.20;99.90;;;;;;5073986;28;20570;-44
2021/12/08 05:27:38;;;;;;;14.05;6.18;;;6.20;99.90;;;;;;5074348;28;20319;-45
2021/12/08 05:30:13;;;;;;;14.07;3.47;;;6.30;99.90;;;;;;5074361;28;20257;-44
2021/12/08 05:32:39;;;;;;;10.32;4.28;;;6.30;99.90;;;;;;5073979;28;20161;-44
2021/12/08 05:35:09;;;;;;;10.63;3.03;;;6.30;99.90;;;;;;5072689;28;20182;-44
2021/12/08 05:37:34;;;;;;;9.30;2.53;;;6.20;99.90;;;;;;5074011;28;20162;-44
2021/12/08 05:40:00;;;;;;;8.10;2.30;;;6.10;99.90;;;;;;5073896;28;20212;-44
2021/12/08 05:42:33;;;;;;;3.35;1.80;;;6.00;99.90;;;;;;5074275;28;20170;-45
2021/12/08 05:44:59;;;;;;;7.18;1.60;;;6.10;99.90;;;;;;5074029;28;20253;-44
2021/12/08 05:47:28;;;;;;;4.30;1.42;;;6.10;99.90;;;;;;5074118;28;20296;-44
2021/12/08 05:49:55;;;;;;;5.20;1.58;;;6.10;99.90;;;;;;5074049;28;20162;-45
2021/12/08 05:52:22;;;;;;;5.68;1.70;;;6.00;99.90;;;;;;5073832;28;20181;-45
2021/12/08 05:54:50;;;;;;;5.13;2.05;;;5.90;99.90;;;;;;5073507;28;20174;-45
2021/12/08 05:57:20;;;;;;;6.50;2.35;;;5.90;99.90;;;;;;5073482;28;20633;-46
2021/12/08 05:59:48;;;;;;;4.00;1.70;;;5.90;99.90;;;;;;5073433;28;20162;-46
2021/12/08 06:02:29;;;;;;;3.75;1.90;;;5.80;99.90;;;;;;5073500;28;20158;-45
2021/12/08 06:04:55;;;;;;;9.13;2.58;;;5.90;99.90;;;;;;5073638;28;20638;-46
2021/12/08 06:07:22;;;;;;;6.03;2.15;;;5.90;99.90;;;;;;5073079;28;20206;-45
2021/12/08 06:09:50;;;;;;;6.32;2.00;;;5.80;99.90;;;;;;5073038;28;20550;-45
2021/12/08 06:12:15;;;;;;;9.40;3.10;;;5.80;99.90;;;;;;5073428;28;20181;-44
2021/12/08 06:14:41;;;;;;;6.40;2.50;;;5.80;99.90;;;;;;5073441;28;20162;-44
2021/12/08 06:17:10;;;;;;;4.93;2.22;;;5.80;99.90;;;;;;5073168;28;20174;-44
2021/12/08 06:19:40;;;;;;;6.70;1.90;;;5.80;99.90;;;;;;5072709;28;20185;-44
2021/12/08 06:22:08;;;;;;;5.18;2.15;;;5.90;99.90;;;;;;5073346;28;20253;-45
2021/12/08 06:24:34;;;;;;;5.28;2.20;;;5.90;99.90;;;;;;5073007;28;20169;-45
2021/12/08 06:27:00;;;;;;;8.10;2.40;;;5.80;99.90;;;;;;5072925;28;20216;-45
2021/12/08 06:29:26;;;;;;;8.23;3.08;;;5.90;99.90;;;;;;5073186;28;20166;-44
2021/12/08 06:31:55;;;;;;;7.05;2.30;;;5.90;99.90;;;;;;5072449;28;20637;-46
2021/12/08 06:34:22;;;;;;;8.38;1.83;;;5.90;99.90;;;;;;5073039;28;20173;-44
2021/12/08 06:37:10;;;;;;;4.50;1.73;;;5.90;99.90;;;;;;5072938;28;20249;-44
2021/12/08 06:39:41;;;;;;;11.65;2.75;;;6.00;99.90;;;;;;5072727;28;20178;-44
2021/12/08 06:42:14;;;;;;;11.75;4.15;;;6.00;99.90;;;;;;5071120;28;20212;-44
2021/12/08 06:44:44;;;;;;;14.48;6.80;;;6.10;99.90;;;;;;5071974;28;20166;-44
2021/12/08 06:47:16;;;;;;;10.82;4.38;;;6.10;99.90;;;;;;5072726;28;20235;-44
2021/12/08 06:49:45;;;;;;;6.47;2.70;;;6.10;99.90;;;;;;5072671;28;20166;-44
2021/12/08 06:52:15;;;;;;;4.75;1.67;;;6.20;99.90;;;;;;5072628;28;20177;-45
2021/12/08 06:54:48;;;;;;;7.20;1.73;;;6.20;99.90;;;;;;5072153;28;20182;-44
2021/12/08 06:57:23;;;;;;;10.45;2.22;;;6.20;99.90;;;;;;5072358;28;20542;-46
2021/12/08 06:59:57;;;;;;;10.02;3.28;;;6.20;99.90;;;;;;5072252;28;20167;-45
2021/12/08 07:05:24;;;;;;;8.43;3.47;;;6.20;99.90;;;;;;5071952;28;20533;-44
2021/12/08 07:07:53;;;;;;;12.13;2.83;;;6.20;99.90;;;;;;5072209;28;20209;-45
2021/12/08 07:10:24;;;;;;;11.98;3.95;;;6.20;99.90;;;;;;5071923;28;20218;-44
2021/12/08 07:12:53;;;;;;;15.18;5.63;;;6.20;99.90;;;;;;5072362;28;20185;-45
2021/12/08 07:15:31;;;;;;;11.90;3.60;;;6.10;99.90;;;;;;5070754;28;20166;-44
2021/12/08 07:18:03;;;;;;;10.50;2.58;;;6.10;99.90;;;;;;5072485;28;20180;-45
2021/12/08 07:20:47;;;;;;;7.82;2.35;;;6.10;99.90;;;;;;5070666;28;20172;-45
2021/12/08 07:23:36;;;;;;;7.93;2.40;;;6.00;99.90;;;;;;5071955;28;20170;-44
2021/12/08 07:26:16;;;;;;;3.83;2.47;;;5.90;99.90;;;;;;5071955;28;20530;-44
2021/12/08 07:28:42;;;;;;;8.55;3.65;;;5.90;99.90;;;;;;5071925;28;20165;-45
2021/12/08 07:31:19;;;;;;;12.70;5.07;;;5.80;99.90;;;;;;5072023;28;20168;-43
2021/12/08 07:33:45;;;;;;;9.55;3.10;;;5.70;99.90;;;;;;5071820;28;20637;-44
2021/12/08 07:36:15;;;;;;;9.68;2.53;;;5.70;99.90;;;;;;5071903;28;20170;-45
2021/12/08 07:38:43;;;;;;;7.50;2.50;;;5.70;99.90;;;;;;5071799;28;20625;-45
2021/12/08 07:41:17;;;;;;;6.50;1.73;;;5.80;99.90;;;;;;5071845;28;20303;-44
2021/12/08 07:43:46;;;;;;;10.02;7.10;;;5.80;99.90;;;;;;5071154;28;20166;-45
2021/12/08 07:46:22;;;;;;;8.05;2.30;;;5.80;99.90;;;;;;5071563;28;20214;-44
2021/12/08 07:48:56;;;;;;;10.07;1.80;;;5.80;99.90;;;;;;5071987;28;20249;-45
2021/12/08 07:51:30;;;;;;;3.17;1.48;;;5.80;99.90;;;;;;5072401;28;20216;-45
2021/12/08 07:53:57;;;;;;;8.02;2.70;;;5.80;99.90;;;;;;5072100;28;20314;-44
2021/12/08 07:56:25;;;;;;;4.63;2.42;;;5.80;99.90;;;;;;5071944;28;20170;-44
2021/12/08 07:59:00;;;;;;;9.27;5.22;;;5.80;99.90;;;;;;5071649;28;20224;-44
2021/12/08 08:01:36;;;;;;;11.50;6.55;;;5.70;99.90;;;;;;5071752;28;20204;-45
2021/12/08 08:04:05;;;;;;;12.10;4.45;;;5.70;99.90;;;;;;5071626;28;20166;-44
2021/12/08 08:06:35;;;;;;;6.07;2.15;;;5.70;99.90;;;;;;5071315;28;20201;-45
2021/12/08 08:09:08;;;;;;;23.38;15.35;;;5.70;99.90;;;;;;5071227;28;20205;-44
2021/12/08 08:11:41;;;;;;;5.60;1.70;;;5.70;99.90;;;;;;5071181;28;20203;-44
2021/12/08 08:14:07;;;;;;;6.75;3.30;;;5.70;99.90;;;;;;5071377;28;20155;-44
2021/12/08 08:16:35;;;;;;;9.18;3.42;;;5.80;99.90;;;;;;5071268;28;20245;-46
2021/12/08 08:19:10;;;;;;;9.10;4.30;;;5.80;99.90;;;;;;5071457;28;20175;-45
2021/12/08 08:21:41;;;;;;;5.97;1.85;;;5.90;99.90;;;;;;5070393;28;20226;-46
2021/12/08 08:24:08;;;;;;;4.18;1.55;;;5.90;99.90;;;;;;5071119;28;20174;-46
2021/12/08 08:26:35;;;;;;;8.38;1.92;;;5.90;99.90;;;;;;5071030;28;20248;-42
2021/12/08 08:29:01;;;;;;;3.83;1.50;;;5.90;99.90;;;;;;5069500;28;20270;-41
2021/12/08 08:31:29;;;;;;;6.90;1.90;;;6.00;99.90;;;;;;5070378;28;20629;-44
2021/12/08 08:33:55;;;;;;;4.68;2.00;;;6.00;99.90;;;;;;5069916;28;20194;-43
2021/12/08 08:36:25;;;;;;;9.98;3.00;;;6.10;99.90;;;;;;5069711;28;20198;-45
2021/12/08 08:38:55;;;;;;;6.70;1.77;;;6.00;99.90;;;;;;5069779;28;20177;-43
2021/12/08 08:41:27;;;;;;;5.10;2.42;;;6.00;99.90;;;;;;5069591;28;20174;-44
2021/12/08 08:43:57;;;;;;;9.02;3.00;;;6.10;99.90;;;;;;5070094;28;20166;-44
2021/12/08 08:46:28;;;;;;;6.03;2.80;;;6.00;99.90;;;;;;5069982;28;20323;-45
2021/12/08 08:48:59;;;;;;;5.10;2.30;;;6.00;99.90;;;;;;5069958;28;20227;-44
2021/12/08 08:51:42;;;;;;;13.50;3.30;;;6.10;99.90;;;;;;5066736;28;20554;-45
2021/12/08 08:54:14;;;;;;;7.32;2.70;;;6.10;99.90;;;;;;5069518;28;20184;-43
2021/12/08 08:56:46;;;;;;;5.93;2.22;;;6.10;99.90;;;;;;5072466;28;20649;-43
2021/12/08 08:59:19;;;;;;;6.20;2.25;;;6.10;99.90;;;;;;5072944;28;20525;-44
2021/12/08 09:01:50;;;;;;;5.25;2.50;;;6.20;99.90;;;;;;5073119;28;20173;-45
2021/12/08 09:04:28;;;;;;;5.82;2.08;;;6.10;99.90;;;;;;5071842;28;20264;-44
2021/12/08 09:07:02;;;;;;;4.57;2.33;;;6.20;99.90;;;;;;5073474;28;20237;-44
2021/12/08 09:09:31;;;;;;;6.82;3.45;;;6.20;99.90;;;;;;5072821;28;20367;-43
2021/12/08 09:12:07;;;;;;;8.25;2.55;;;6.30;99.90;;;;;;5073367;28;20180;-43
2021/12/08 09:14:47;;;;;;;11.80;4.68;;;6.30;99.90;;;;;;5071934;28;20162;-43
2021/12/08 09:17:21;;;;;;;10.15;2.53;;;6.30;99.90;;;;;;5072911;28;20219;-43
2021/12/08 09:20:09;;;;;;;12.63;3.38;;;6.40;99.90;;;;;;5072831;28;20162;-43
2021/12/08 09:22:43;;;;;;;11.77;3.35;;;6.40;99.90;;;;;;5044325;28;20582;-43
2021/12/08 09:25:20;;;;;;;7.88;2.50;;;6.40;99.90;;;;;;5072567;28;20162;-43
2021/12/08 09:27:51;;;;;;;9.75;2.17;;;6.40;99.90;;;;;;5072418;28;20205;-43
2021/12/08 09:30:32;;;;;;;7.55;2.25;;;6.50;99.90;;;;;;5072617;28;20162;-44
2021/12/08 09:33:03;;;;;;;7.47;2.08;;;6.50;99.90;;;;;;5072421;28;20779;-48
2021/12/08 09:35:37;;;;;;;9.32;2.10;;;6.40;99.90;;;;;;5072325;28;20186;-44
2021/12/08 09:38:19;;;;;;;4.10;1.65;;;6.50;99.90;;;;;;5071768;28;20169;-47
2021/12/08 09:41:08;;;;;;;9.48;2.67;;;6.60;99.90;;;;;;5072357;28;20170;-44
2021/12/08 09:43:43;;;;;;;4.93;2.42;;;6.60;99.90;;;;;;5072303;28;20249;-42
2021/12/08 09:46:22;;;;;;;8.15;3.60;;;6.60;99.90;;;;;;5068502;28;20213;-45
2021/12/08 09:48:49;;;;;;;6.47;2.55;;;6.70;99.90;;;;;;5071995;28;20257;-45
2021/12/08 09:51:19;;;;;;;12.13;3.65;;;6.70;99.90;;;;;;5070786;28;20200;-43
2021/12/08 09:53:46;;;;;;;12.13;5.10;;;6.80;99.90;;;;;;5072321;28;20170;-45
2021/12/08 09:56:12;;;;;;;8.55;2.28;;;6.80;99.90;;;;;;5072043;28;20169;-44
2021/12/08 09:58:39;;;;;;;10.90;3.13;;;6.80;99.90;;;;;;5071963;28;20170;-41
2021/12/08 10:01:06;;;;;;;9.95;2.60;;;6.80;99.90;;;;;;5072263;28;20174;-44
2021/12/08 10:03:33;;;;;;;7.30;1.95;;;6.80;99.90;;;;;;5071846;28;20712;-46
2021/12/08 10:06:00;;;;;;;7.32;2.03;;;6.70;99.90;;;;;;5072854;28;20233;-46
2021/12/08 10:08:26;;;;;;;8.75;1.90;;;6.80;99.90;;;;;;5072700;28;20170;-46
2021/12/08 10:10:52;;;;;;;8.15;2.03;;;6.80;99.90;;;;;;5073014;28;20173;-46
2021/12/08 10:13:18;;;;;;;6.88;1.80;;;6.80;99.90;;;;;;5073030;28;20166;-46
2021/12/08 10:15:44;;;;;;;8.43;2.17;;;6.80;99.90;;;;;;5072994;28;20166;-46
2021/12/08 10:18:10;;;;;;;10.43;3.05;;;6.80;99.90;;;;;;5072916;28;20176;-46
2021/12/08 10:20:38;;;;;;;6.40;2.30;;;6.80;99.90;;;;;;5072857;28;20207;-45
2021/12/08 10:23:12;;;;;;;11.57;2.35;;;6.90;99.90;;;;;;5072917;28;20178;-46
2021/12/08 10:25:51;;;;;;;8.23;3.22;;;6.80;99.90;;;;;;5072944;28;20170;-45
2021/12/08 10:28:30;;;;;;;8.70;3.00;;;6.80;99.90;;;;;;5072570;28;20314;-45
2021/12/08 10:31:13;;;;;;;10.15;2.90;;;6.90;99.90;;;;;;5073128;28;20170;-45
2021/12/08 10:34:53;;;;;;;9.27;3.35;;;6.90;99.90;;;;;;5072705;28;20223;-46
2021/12/08 10:37:18;;;;;;;7.00;2.20;;;7.00;99.90;;;;;;5069528;28;20186;-44
2021/12/08 10:39:49;;;;;;;8.15;2.17;;;7.00;99.90;;;;;;5069928;28;20174;-45
2021/12/08 10:42:22;;;;;;;7.45;2.00;;;7.10;99.90;;;;;;5072234;28;20633;-45
2021/12/08 10:45:22;;;;;;;4.47;2.03;;;7.00;99.90;;;;;;5071641;28;20504;-45
2021/12/08 10:47:48;;;;;;;6.22;2.33;;;7.10;99.90;;;;;;5071972;28;20220;-45
2021/12/08 10:55:58;;;;;;;6.15;2.10;;;7.00;99.90;;;;;;5073112;28;20249;-45
2021/12/08 10:58:30;;;;;;;8.15;2.22;;;7.00;99.90;;;;;;5072313;28;20170;-47
2021/12/08 11:00:58;;;;;;;7.45;2.60;;;7.00;99.90;;;;;;5072748;28;20170;-46
2021/12/08 11:03:30;;;;;;;5.45;2.10;;;7.00;99.90;;;;;;5072537;28;20168;-45
2021/12/08 11:05:59;;;;;;;7.55;2.15;;;7.10;99.90;;;;;;5072493;28;20625;-46
2021/12/08 11:08:30;;;;;;;5.35;1.98;;;7.00;99.90;;;;;;5072068;28;20576;-46
2021/12/08 11:11:10;;;;;;;13.05;3.35;;;7.00;99.90;;;;;;5071954;28;20193;-45
2021/12/08 11:13:38;;;;;;;5.97;1.73;;;7.00;99.90;;;;;;5071773;28;20170;-45
2021/12/08 11:16:17;;;;;;;5.13;2.55;;;7.00;99.90;;;;;;5072116;28;20165;-45
2021/12/08 11:18:46;;;;;;;7.65;2.00;;;7.00;99.90;;;;;;5069918;28;20169;-46
2021/12/08 11:21:29;;;;;;;7.43;1.67;;;7.10;99.90;;;;;;5071979;28;20177;-45
2021/12/08 11:23:59;;;;;;;7.38;1.83;;;7.00;99.90;;;;;;5072654;28;20165;-46
2021/12/08 11:26:38;;;;;;;6.88;2.03;;;7.10;99.90;;;;;;5072516;28;20213;-47
2021/12/08 11:29:17;;;;;;;7.65;1.80;;;7.20;99.90;;;;;;5071873;28;20170;-45
2021/12/08 11:31:53;;;;;;;10.40;2.00;;;7.20;99.90;;;;;;5071886;28;20228;-45
2021/12/08 11:34:24;;;;;;;8.02;1.42;;;7.20;99.90;;;;;;5071915;28;20171;-46
2021/12/08 11:36:53;;;;;;;7.82;2.72;;;7.20;99.90;;;;;;5071973;28;20531;-45
2021/12/08 11:39:22;;;;;;;6.57;3.63;;;7.30;99.90;;;;;;5071647;28;20170;-46
2021/12/08 11:41:54;;;;;;;6.90;2.28;;;7.30;99.90;;;;;;5071680;28;20189;-45
2021/12/08 11:44:24;;;;;;;4.88;1.75;;;7.30;99.90;;;;;;5072104;28;20269;-45
2021/12/08 11:46:55;;;;;;;6.35;2.15;;;7.30;99.90;;;;;;5071801;28;20233;-45
2021/12/08 11:49:23;;;;;;;15.43;2.75;;;7.40;99.90;;;;;;5071751;28;20667;-45
2021/12/08 11:51:59;;;;;;;5.68;1.75;;;7.40;99.90;;;;;;5071690;28;20185;-46
2021/12/08 11:54:26;;;;;;;10.00;2.53;;;7.40;99.90;;;;;;5071817;28;20256;-44
2021/12/08 11:56:59;;;;;;;5.57;2.83;;;7.40;99.90;;;;;;5071809;28;20533;-45
2021/12/08 11:59:25;;;;;;;4.43;1.90;;;7.40;99.90;;;;;;5071760;28;20165;-46
2021/12/08 12:01:51;;;;;;;5.28;2.25;;;7.40;99.90;;;;;;5071424;28;20524;-45
2021/12/08 12:04:16;;;;;;;6.95;1.60;;;7.30;99.90;;;;;;5071923;28;20177;-45
2021/12/08 12:06:42;;;;;;;4.45;1.80;;;7.30;99.90;;;;;;5071404;28;20212;-45
2021/12/08 12:09:09;;;;;;;7.97;2.40;;;7.30;99.90;;;;;;5071204;28;20229;-45
2021/12/08 12:11:36;;;;;;;12.73;2.95;;;7.40;99.90;;;;;;5070620;28;20238;-46
2021/12/08 12:14:02;;;;;;;5.45;2.22;;;7.50;99.90;;;;;;5071176;28;20166;-46
2021/12/08 12:16:28;;;;;;;8.52;2.47;;;7.50;99.90;;;;;;5071126;28;20294;-44
2021/12/08 12:18:58;;;;;;;7.90;2.40;;;7.50;99.90;;;;;;5071208;28;20166;-45
2021/12/08 12:21:56;;;;;;;7.38;2.20;;;7.50;99.90;;;;;;5071249;28;20197;-46
2021/12/08 12:24:27;;;;;;;8.75;2.00;;;7.50;99.90;;;;;;5071547;28;20176;-46
2021/12/08 12:27:22;;;;;;;8.88;3.70;;;7.50;99.90;;;;;;5070939;28;20198;-45
2021/12/08 12:30:14;;;;;;;7.88;2.47;;;7.40;99.90;;;;;;5071295;28;20174;-45
2021/12/08 12:32:51;;;;;;;8.13;2.60;;;7.40;99.90;;;;;;5074628;28;20165;-47
2021/12/08 12:35:21;;;;;;;7.60;2.28;;;7.50;99.90;;;;;;5074837;28;20534;-46
2021/12/08 12:37:49;;;;;;;7.43;1.98;;;7.50;99.90;;;;;;5073511;28;20539;-46
2021/12/08 12:40:28;;;;;;;7.88;1.98;;;7.50;99.90;;;;;;5074329;28;20163;-46
2021/12/08 12:42:57;;;;;;;8.75;2.47;;;7.40;99.90;;;;;;5074996;28;20234;-46
2021/12/08 12:45:33;;;;;;;3.65;1.90;;;7.40;99.90;;;;;;5075223;28;20166;-45
2021/12/08 12:48:08;;;;;;;15.18;2.72;;;7.40;99.90;;;;;;5075041;28;20253;-47
2021/12/08 12:51:10;;;;;;;12.85;2.33;;;7.50;99.90;;;;;;5075009;28;20303;-46
2021/12/08 12:53:39;;;;;;;6.70;2.75;;;7.50;99.90;;;;;;5012886;28;20179;-46
2021/12/08 12:56:10;;;;;;;11.23;4.18;;;7.50;99.90;;;;;;5063869;28;20181;-45
2021/12/08 12:58:50;;;;;;;6.80;2.85;;;7.50;99.90;;;;;;5074698;28;20519;-45
2021/12/08 13:01:41;;;;;;;9.15;3.83;;;7.50;99.90;;;;;;5074483;28;20166;-45
2021/12/08 13:04:24;;;;;;;4.63;2.20;;;7.60;99.90;;;;;;5074313;28;20714;-46
2021/12/08 13:06:57;;;;;;;9.98;2.47;;;7.60;99.90;;;;;;5074309;28;20204;-46
2021/12/08 13:09:53;;;;;;;4.00;1.73;;;7.60;99.90;;;;;;5074168;28;20637;-46
2021/12/08 13:12:38;;;;;;;6.43;2.50;;;7.60;99.90;;;;;;5073138;28;20178;-46
2021/12/08 13:15:14;;;;;;;7.78;3.97;;;7.60;99.90;;;;;;5073018;28;20208;-46
2021/12/08 13:18:05;;;;;;;5.20;2.13;;;7.60;99.90;;;;;;5074347;28;20649;-45
2021/12/08 13:20:39;;;;;;;6.97;2.08;;;7.60;99.90;;;;;;5074237;28;20257;-45
2021/12/08 13:23:07;;;;;;;7.22;2.35;;;7.60;99.90;;;;;;5074437;28;20170;-47
2021/12/08 13:26:00;;;;;;;6.75;2.22;;;7.60;99.90;;;;;;5074328;28;20197;-45
2021/12/08 13:28:36;;;;;;;6.60;2.22;;;7.60;99.90;;;;;;5074467;28;20239;-45
2021/12/08 13:31:15;;;;;;;7.40;1.80;;;7.60;99.90;;;;;;5074299;28;20223;-45
2021/12/08 13:33:50;;;;;;;8.02;2.40;;;7.70;99.90;;;;;;5074101;28;20173;-46
2021/12/08 13:36:22;;;;;;;11.88;4.78;;;7.70;99.90;;;;;;5073755;28;20170;-47
2021/12/08 13:38:53;;;;;;;10.45;3.78;;;7.70;99.90;;;;;;5074090;28;20249;-47
2021/12/08 13:41:19;;;;;;;9.07;3.90;;;7.70;99.90;;;;;;5071805;28;20651;-46
2021/12/08 13:43:49;;;;;;;12.55;3.67;;;7.70;99.90;;;;;;5073386;28;20622;-46
2021/12/08 13:46:37;;;;;;;10.20;3.17;;;7.60;99.90;;;;;;5073615;28;20243;-47
2021/12/08 13:49:41;;;;;;;6.63;2.08;;;7.60;99.90;;;;;;5073597;28;20531;-46
2021/12/08 13:52:07;;;;;;;6.55;2.50;;;7.60;99.90;;;;;;5073431;28;20631;-47
2021/12/08 13:54:41;;;;;;;4.30;2.50;;;7.50;99.90;;;;;;5073647;28;20253;-46
2021/12/08 13:57:29;;;;;;;6.10;2.08;;;7.50;99.90;;;;;;5073405;28;20253;-47
2021/12/08 14:00:06;;;;;;;5.22;2.47;;;7.50;99.90;;;;;;5073761;28;20244;-47
2021/12/08 14:02:36;;;;;;;5.60;2.28;;;7.50;99.90;;;;;;5073259;28;20241;-48
2021/12/08 14:05:13;;;;;;;7.53;2.67;;;7.60;99.90;;;;;;5073148;28;20166;-48